Time;durP1;ratioP1;P1;durP2;ratioP2;P2;SDS_P1;SDS_P2;PMS_P1;PMS_P2;Temp;Humidity;BMP_temperature;BMP_pressure;BME280_temperature;BME280_humidity;BME280_pressure;Samples;Min_cycle;Max_cycle;Signal;HPM_P1;HPM_P2
2023/04/19 00:02:24;;;;;;;;;;;;;;;11.24;100.00;99244.69;5093029;28;20245;-36
2023/04/19 00:04:49;;;;;;;;;;;;;;;11.20;100.00;99240.84;5093090;28;19996;-36
2023/04/19 00:07:17;;;;;;;;;;;;;;;11.12;100.00;99249.91;5093018;28;20011;-36
2023/04/19 00:09:42;;;;;;;;;;;;;;;11.11;100.00;99241.09;5092961;28;20371;-35
2023/04/19 00:12:07;;;;;;;;;;;;;;;11.12;100.00;99237.41;5092207;28;19913;-35
2023/04/19 00:14:33;;;;;;;;;;;;;;;11.11;100.00;99230.44;5092606;28;20324;-36
2023/04/19 00:16:58;;;;;;;;;;;;;;;11.15;100.00;99233.50;5092814;28;19947;-36
2023/04/19 00:19:23;;;;;;;;;;;;;;;11.06;100.00;99235.63;5092589;28;20256;-35
2023/04/19 00:21:49;;;;;;;;;;;;;;;11.17;100.00;99219.97;5092775;28;19916;-36
2023/04/19 00:24:14;;;;;;;;;;;;;;;11.20;100.00;99231.00;5092533;28;20398;-36
2023/04/19 00:26:40;;;;;;;;;;;;;;;11.22;100.00;99220.13;5092292;28;19928;-36
2023/04/19 00:29:05;;;;;;;;;;;;;;;11.24;100.00;99226.84;5092109;28;19920;-36
2023/04/19 00:31:30;;;;;;;;;;;;;;;11.19;100.00;99216.03;5092504;28;19912;-44
2023/04/19 00:33:56;;;;;;;;;;;;;;;11.13;100.00;99214.25;5092453;28;20011;-44
2023/04/19 00:36:21;;;;;;;;;;;;;;;11.02;100.00;99214.97;5092503;28;19912;-42
2023/04/19 00:38:46;;;;;;;;;;;;;;;11.12;100.00;99210.78;5092518;28;19961;-42
2023/04/19 00:41:12;;;;;;;;;;;;;;;11.01;100.00;99214.16;5092240;28;20379;-43
2023/04/19 00:43:37;;;;;;;;;;;;;;;11.30;100.00;99211.84;5092052;28;19912;-41
2023/04/19 00:46:03;;;;;;;;;;;;;;;11.07;100.00;99215.13;5092187;28;19916;-43
2023/04/19 00:48:29;;;;;;;;;;;;;;;11.13;100.00;99212.41;5092183;28;19991;-43
2023/04/19 00:50:55;;;;;;;;;;;;;;;11.09;100.00;99215.72;5092654;28;19928;-43
2023/04/19 00:53:20;;;;;;;;;;;;;;;11.15;100.00;99209.53;5092109;28;20376;-44
2023/04/19 00:55:46;;;;;;;;;;;;;;;11.28;100.00;99217.38;5091983;28;19920;-44
2023/04/19 00:58:12;;;;;;;;;;;;;;;11.22;100.00;99207.63;5091844;28;20008;-45
2023/04/19 01:00:37;;;;;;;;;;;;;;;11.29;100.00;99207.53;5092221;28;19912;-45
2023/04/19 01:03:02;;;;;;;;;;;;;;;11.26;100.00;99211.47;5091875;28;19916;-44
2023/04/19 01:05:28;;;;;;;;;;;;;;;11.24;100.00;99207.41;5092045;28;19908;-47
2023/04/19 01:07:54;;;;;;;;;;;;;;;11.15;100.00;99202.34;5091641;28;19916;-46
2023/04/19 01:10:19;;;;;;;;;;;;;;;11.20;100.00;99199.03;5091840;28;20030;-45
2023/04/19 01:12:44;;;;;;;;;;;;;;;11.18;100.00;99195.78;5091172;28;19919;-45
2023/04/19 01:15:10;;;;;;;;;;;;;;;11.26;100.00;99195.47;5091953;28;20359;-44
2023/04/19 01:17:35;;;;;;;;;;;;;;;11.30;100.00;99195.84;5091740;28;19995;-45
2023/04/19 01:20:02;;;;;;;;;;;;;;;11.15;100.00;99196.22;5091803;28;20011;-45
2023/04/19 01:22:28;;;;;;;;;;;;;;;11.19;100.00;99194.72;5091909;28;19935;-44
2023/04/19 01:24:54;;;;;;;;;;;;;;;11.32;100.00;99186.59;5092016;28;19916;-44
2023/04/19 01:27:20;;;;;;;;;;;;;;;11.28;100.00;99187.28;5091053;28;20379;-44
2023/04/19 01:29:45;;;;;;;;;;;;;;;11.23;100.00;99184.44;5090193;28;19924;-46
2023/04/19 01:32:12;;;;;;;;;;;;;;;11.41;98.96;99188.97;5091278;28;19912;-43
2023/04/19 01:34:37;;;;;;;;;;;;;;;11.30;99.45;99178.00;5091683;28;19991;-44
2023/04/19 01:37:03;;;;;;;;;;;;;;;11.35;99.34;99182.69;5091715;28;19912;-45
2023/04/19 01:39:28;;;;;;;;;;;;;;;11.32;99.04;99175.94;5091390;28;19919;-47
2023/04/19 01:41:54;;;;;;;;;;;;;;;11.31;99.02;99173.53;5091374;28;19916;-42
2023/04/19 01:44:19;;;;;;;;;;;;;;;11.25;99.30;99172.56;5091575;28;19973;-45
2023/04/19 01:46:44;;;;;;;;;;;;;;;11.17;99.69;99180.00;5091160;28;20007;-44
2023/04/19 01:49:10;;;;;;;;;;;;;;;11.03;100.00;99174.81;5091426;28;19916;-42
2023/04/19 01:51:36;;;;;;;;;;;;;;;11.24;100.00;99172.78;5091490;28;20018;-43
2023/04/19 01:54:01;;;;;;;;;;;;;;;11.14;99.77;99163.44;5091215;28;19912;-45
2023/04/19 01:56:26;;;;;;;;;;;;;;;11.18;99.91;99165.69;5090983;28;20007;-44
2023/04/19 01:58:52;;;;;;;;;;;;;;;11.19;99.13;99161.97;5091485;28;19912;-44
2023/04/19 02:01:17;;;;;;;;;;;;;;;11.39;98.49;99162.56;5091114;28;20316;-44
2023/04/19 02:03:42;;;;;;;;;;;;;;;11.18;98.26;99157.69;5091152;28;19912;-44
2023/04/19 02:06:11;;;;;;;;;;;;;;;11.12;99.09;99152.19;5091083;28;20299;-44
2023/04/19 02:08:37;;;;;;;;;;;;;;;11.05;99.41;99158.63;5091211;28;19969;-44
2023/04/19 02:11:06;;;;;;;;;;;;;;;11.17;98.83;99156.03;5091271;28;19916;-45
2023/04/19 02:13:31;;;;;;;;;;;;;;;11.18;98.96;99153.16;5091541;28;20003;-44
2023/04/19 02:15:57;;;;;;;;;;;;;;;11.14;98.61;99151.97;5091064;28;20006;-44
2023/04/19 02:18:22;;;;;;;;;;;;;;;11.17;98.63;99153.38;5091032;28;19919;-43
2023/04/19 02:20:49;;;;;;;;;;;;;;;11.26;97.49;99144.06;5091067;28;20024;-43
2023/04/19 02:23:14;;;;;;;;;;;;;;;11.17;98.09;99143.53;5090972;28;19923;-43
2023/04/19 02:25:39;;;;;;;;;;;;;;;11.04;99.12;99152.50;5094099;28;19928;-43
2023/04/19 02:28:05;;;;;;;;;;;;;;;11.05;97.88;99147.97;5095009;28;19922;-43
2023/04/19 02:30:30;;;;;;;;;;;;;;;11.08;98.38;99143.03;5095059;28;19916;-44
2023/04/19 02:32:57;;;;;;;;;;;;;;;11.08;98.49;99143.03;5094907;28;19969;-44
2023/04/19 02:35:22;;;;;;;;;;;;;;;11.11;98.57;99139.09;5095006;28;20312;-43
2023/04/19 02:37:48;;;;;;;;;;;;;;;11.08;97.64;99139.53;5094631;28;19999;-44
2023/04/19 02:40:13;;;;;;;;;;;;;;;11.05;97.90;99142.66;5094938;28;20022;-43
2023/04/19 02:42:38;;;;;;;;;;;;;;;10.93;98.69;99137.25;5094674;28;19918;-44
2023/04/19 02:45:04;;;;;;;;;;;;;;;10.98;97.87;99141.91;5094716;28;19951;-43
2023/04/19 02:47:29;;;;;;;;;;;;;;;11.10;97.08;99135.63;5094906;28;20156;-43
2023/04/19 02:49:55;;;;;;;;;;;;;;;10.91;99.53;99134.81;5094626;28;19944;-43
2023/04/19 02:52:20;;;;;;;;;;;;;;;11.21;97.37;99130.59;5094422;28;19912;-43
2023/04/19 02:54:45;;;;;;;;;;;;;;;11.15;97.09;99138.44;5094590;28;19916;-42
2023/04/19 02:57:11;;;;;;;;;;;;;;;11.44;94.36;99137.91;5094677;28;19912;-43
2023/04/19 02:59:36;;;;;;;;;;;;;;;11.33;94.40;99134.97;5094414;28;19996;-43
2023/04/19 03:02:01;;;;;;;;;;;;;;;11.38;94.83;99138.81;5094118;28;19912;-42
2023/04/19 03:04:27;;;;;;;;;;;;;;;11.39;94.08;99143.91;5094382;28;20433;-42
2023/04/19 03:06:53;;;;;;;;;;;;;;;11.25;94.63;99135.28;5094104;28;20364;-42
2023/04/19 03:09:18;;;;;;;;;;;;;;;11.28;94.49;99140.13;5094011;28;19969;-43
2023/04/19 03:11:43;;;;;;;;;;;;;;;11.42;93.78;99142.63;5094065;28;20019;-42
2023/04/19 03:14:08;;;;;;;;;;;;;;;11.46;94.28;99141.16;5093801;28;19982;-42
2023/04/19 03:16:34;;;;;;;;;;;;;;;11.53;93.79;99137.38;5073673;28;19948;-43
2023/04/19 03:18:59;;;;;;;;;;;;;;;11.40;94.71;99144.72;5073746;28;19916;-43
2023/04/19 03:21:26;;;;;;;;;;;;;;;11.53;93.99;99139.22;5073580;28;19916;-43
2023/04/19 03:23:51;;;;;;;;;;;;;;;11.62;92.29;99142.41;5073821;28;19913;-43
2023/04/19 03:26:17;;;;;;;;;;;;;;;11.61;91.49;99143.44;5071981;28;20003;-41
2023/04/19 03:28:42;;;;;;;;;;;;;;;11.49;92.42;99138.84;5087056;28;19916;-43
2023/04/19 03:31:07;;;;;;;;;;;;;;;11.54;92.70;99140.88;5093908;28;20003;-43
2023/04/19 03:33:32;;;;;;;;;;;;;;;11.55;92.58;99137.94;5093740;28;19912;-43
2023/04/19 03:35:58;;;;;;;;;;;;;;;11.62;91.76;99137.88;5092696;28;19984;-43
2023/04/19 03:38:23;;;;;;;;;;;;;;;11.74;91.53;99135.25;5093611;28;19912;-42
2023/04/19 03:40:49;;;;;;;;;;;;;;;12.00;89.81;99136.78;5093472;28;19912;-43
2023/04/19 03:43:14;;;;;;;;;;;;;;;11.77;90.54;99134.03;5093290;28;19919;-43
2023/04/19 03:45:39;;;;;;;;;;;;;;;11.51;91.43;99136.78;5093452;28;19992;-42
2023/04/19 03:48:05;;;;;;;;;;;;;;;11.30;92.72;99134.59;5093072;28;20341;-42
2023/04/19 03:50:30;;;;;;;;;;;;;;;11.54;92.01;99146.19;5093274;28;19916;-44
2023/04/19 03:52:56;;;;;;;;;;;;;;;11.65;90.65;99140.09;5093238;28;19917;-44
2023/04/19 03:55:21;;;;;;;;;;;;;;;11.53;89.69;99144.56;5092866;28;19999;-44
2023/04/19 03:57:46;;;;;;;;;;;;;;;11.61;92.13;99146.09;5092713;28;20386;-43
2023/04/19 04:00:12;;;;;;;;;;;;;;;11.82;89.18;99136.78;5092910;28;19961;-43
2023/04/19 04:02:38;;;;;;;;;;;;;;;11.95;89.30;99146.50;5093168;28;19912;-43
2023/04/19 04:05:04;;;;;;;;;;;;;;;11.55;90.67;99142.47;5092740;28;19981;-44
2023/04/19 04:07:29;;;;;;;;;;;;;;;11.76;89.65;99140.38;5092834;28;19916;-43
2023/04/19 04:09:54;;;;;;;;;;;;;;;11.75;89.76;99139.56;5092879;28;20006;-43
2023/04/19 04:12:19;;;;;;;;;;;;;;;11.64;89.81;99141.13;5092800;28;19991;-43
2023/04/19 04:14:45;;;;;;;;;;;;;;;11.65;91.39;99145.44;5092276;28;20345;-43
2023/04/19 04:17:10;;;;;;;;;;;;;;;11.53;92.32;99145.34;5092207;28;19940;-43
2023/04/19 04:19:35;;;;;;;;;;;;;;;11.74;91.00;99145.94;5091492;28;20301;-44
2023/04/19 04:22:00;;;;;;;;;;;;;;;11.80;90.24;99145.00;5091982;28;19931;-43
2023/04/19 04:24:26;;;;;;;;;;;;;;;11.95;89.64;99141.16;5092621;28;20287;-42
2023/04/19 04:26:52;;;;;;;;;;;;;;;12.12;88.58;99145.63;5091916;28;19925;-44
2023/04/19 04:29:17;;;;;;;;;;;;;;;12.01;89.20;99138.41;5092033;28;19912;-40
2023/04/19 04:31:43;;;;;;;;;;;;;;;12.06;89.71;99141.19;5091756;28;19943;-43
2023/04/19 04:34:08;;;;;;;;;;;;;;;11.97;89.70;99131.91;5096304;28;19923;-43
2023/04/19 04:36:35;;;;;;;;;;;;;;;12.08;88.47;99146.31;5092049;28;19908;-42
2023/04/19 04:39:01;;;;;;;;;;;;;;;11.97;88.75;99144.41;5092223;28;19920;-44
2023/04/19 04:41:26;;;;;;;;;;;;;;;12.14;88.74;99148.06;5091394;28;19912;-43
2023/04/19 04:43:52;;;;;;;;;;;;;;;12.19;88.21;99150.88;5091696;28;19912;-44
2023/04/19 04:46:17;;;;;;;;;;;;;;;12.08;89.13;99151.66;5093596;28;19923;-44
2023/04/19 04:48:43;;;;;;;;;;;;;;;12.10;89.17;99150.38;5097163;28;19919;-43
2023/04/19 04:51:08;;;;;;;;;;;;;;;12.32;87.39;99155.19;5111954;28;20011;-43
2023/04/19 04:53:33;;;;;;;;;;;;;;;12.21;88.28;99161.31;5109203;28;19963;-41
2023/04/19 04:55:59;;;;;;;;;;;;;;;12.18;88.92;99151.91;5110430;28;19951;-42
2023/04/19 04:58:24;;;;;;;;;;;;;;;12.09;88.20;99145.28;5109396;28;20010;-43
2023/04/19 05:00:49;;;;;;;;;;;;;;;11.99;88.62;99150.34;5109682;28;19912;-42
2023/04/19 05:03:15;;;;;;;;;;;;;;;11.88;88.65;99146.56;5110563;28;19919;-43
2023/04/19 05:05:40;;;;;;;;;;;;;;;12.07;87.48;99150.84;5111604;28;20016;-42
2023/04/19 05:08:06;;;;;;;;;;;;;;;12.24;86.01;99158.16;5111414;28;19942;-41
2023/04/19 05:10:31;;;;;;;;;;;;;;;12.21;85.31;99156.78;5112017;28;19914;-43
2023/04/19 05:12:56;;;;;;;;;;;;;;;12.20;84.84;99163.16;5103211;28;19939;-42
2023/04/19 05:15:21;;;;;;;;;;;;;;;12.34;83.68;99163.78;5091038;28;20276;-44
2023/04/19 05:17:47;;;;;;;;;;;;;;;12.40;83.78;99157.53;5091291;28;19985;-44
2023/04/19 05:20:12;;;;;;;;;;;;;;;12.39;84.73;99155.88;5091248;28;19935;-43
2023/04/19 05:22:38;;;;;;;;;;;;;;;12.27;84.84;99157.72;5091190;28;19916;-42
2023/04/19 05:25:04;;;;;;;;;;;;;;;12.34;84.28;99155.78;5091414;28;19916;-43
2023/04/19 05:27:29;;;;;;;;;;;;;;;12.26;85.15;99158.75;5090845;28;19924;-42
2023/04/19 05:29:56;;;;;;;;;;;;;;;12.45;84.52;99163.00;5090604;28;20487;-44
2023/04/19 05:32:21;;;;;;;;;;;;;;;12.36;83.15;99158.22;5091129;28;19912;-42
2023/04/19 05:34:46;;;;;;;;;;;;;;;12.50;83.12;99159.63;5091137;28;19959;-44
2023/04/19 05:37:12;;;;;;;;;;;;;;;12.27;84.92;99166.53;5086508;28;19969;-43
2023/04/19 05:39:37;;;;;;;;;;;;;;;12.47;83.19;99158.25;5082766;28;19912;-42
2023/04/19 05:42:02;;;;;;;;;;;;;;;12.44;83.79;99161.34;5090866;28;19969;-42
2023/04/19 05:44:28;;;;;;;;;;;;;;;12.43;83.86;99156.25;5090774;28;20010;-41
2023/04/19 05:46:53;;;;;;;;;;;;;;;12.54;83.70;99165.31;5090827;28;20368;-43
2023/04/19 05:49:18;;;;;;;;;;;;;;;12.36;83.28;99161.69;5090972;28;19912;-43
2023/04/19 05:51:44;;;;;;;;;;;;;;;12.65;81.89;99159.97;5090477;28;19943;-43
2023/04/19 05:54:11;;;;;;;;;;;;;;;12.63;81.77;99156.72;5091042;28;20018;-42
2023/04/19 05:56:37;;;;;;;;;;;;;;;12.73;81.94;99164.16;5090845;28;19998;-42
2023/04/19 05:59:05;;;;;;;;;;;;;;;12.95;81.94;99163.59;5091180;28;19958;-42
2023/04/19 06:01:30;;;;;;;;;;;;;;;12.89;81.43;99163.47;5093916;28;20010;-41
2023/04/19 06:03:56;;;;;;;;;;;;;;;12.77;81.83;99168.00;5094721;28;20015;-43
2023/04/19 06:06:22;;;;;;;;;;;;;;;12.62;81.86;99164.97;5094295;28;19916;-43
2023/04/19 06:08:47;;;;;;;;;;;;;;;12.81;81.34;99150.50;5094367;28;19912;-42
2023/04/19 06:11:12;;;;;;;;;;;;;;;12.81;81.61;99152.31;5094570;28;19912;-42
2023/04/19 06:13:38;;;;;;;;;;;;;;;12.88;80.53;99153.03;5094102;28;19985;-45
2023/04/19 06:16:03;;;;;;;;;;;;;;;12.70;80.17;99112.06;5094696;28;19912;-41
2023/04/19 06:18:28;;;;;;;;;;;;;;;13.00;79.84;99158.34;5095172;28;19912;-42
2023/04/19 06:20:54;;;;;;;;;;;;;;;13.23;78.32;99153.00;5094635;28;20425;-43
2023/04/19 06:23:19;;;;;;;;;;;;;;;13.49;77.57;99151.69;5094738;28;19916;-43
2023/04/19 06:25:47;;;;;;;;;;;;;;;13.42;78.58;99153.69;5094647;28;19924;-43
2023/04/19 06:28:12;;;;;;;;;;;;;;;13.52;77.44;99146.91;5094787;28;19924;-43
2023/04/19 06:30:38;;;;;;;;;;;;;;;13.56;77.34;99153.44;5094513;28;19916;-43
2023/04/19 06:33:03;;;;;;;;;;;;;;;13.32;78.29;99156.13;5094648;28;19912;-42
2023/04/19 06:35:28;;;;;;;;;;;;;;;13.55;76.88;99155.25;5094532;28;19959;-43
2023/04/19 06:37:54;;;;;;;;;;;;;;;13.44;77.77;99158.78;5094722;28;20314;-42
2023/04/19 06:40:19;;;;;;;;;;;;;;;13.68;75.91;99162.22;5094808;28;19920;-42
2023/04/19 06:42:44;;;;;;;;;;;;;;;13.62;76.05;99169.31;5094232;28;20394;-43
2023/04/19 06:45:10;;;;;;;;;;;;;;;13.52;76.84;99163.78;5094405;28;19916;-41
2023/04/19 06:47:35;;;;;;;;;;;;;;;13.44;77.28;99170.31;5094273;28;19923;-42
2023/04/19 06:50:01;;;;;;;;;;;;;;;13.60;76.34;99176.75;5093966;28;19919;-42
2023/04/19 06:52:27;;;;;;;;;;;;;;;13.72;77.04;99175.91;5093882;28;19919;-43
2023/04/19 06:54:52;;;;;;;;;;;;;;;14.41;74.94;99171.28;5093930;28;19912;-43
2023/04/19 06:57:18;;;;;;;;;;;;;;;14.46;73.71;99166.00;5093889;28;19912;-43
2023/04/19 06:59:43;;;;;;;;;;;;;;;14.54;74.78;99177.38;5094042;28;19964;-42
2023/04/19 07:02:09;;;;;;;;;;;;;;;14.45;72.85;99171.63;5093748;28;19985;-42
2023/04/19 07:04:35;;;;;;;;;;;;;;;14.42;73.09;99175.56;5093588;28;19912;-42
2023/04/19 07:07:00;;;;;;;;;;;;;;;14.58;73.10;99179.38;5093576;28;19920;-43
2023/04/19 07:09:25;;;;;;;;;;;;;;;14.95;71.58;99176.16;5093458;28;19912;-43
2023/04/19 07:11:51;;;;;;;;;;;;;;;14.88;71.54;99183.56;5092127;28;19920;-42
2023/04/19 07:14:18;;;;;;;;;;;;;;;14.62;71.81;99187.69;5093399;28;20324;-42
2023/04/19 07:16:44;;;;;;;;;;;;;;;14.54;71.17;99175.50;5093228;28;19923;-42
2023/04/19 07:19:09;;;;;;;;;;;;;;;14.53;71.25;99181.13;5093733;28;19912;-42
2023/04/19 07:21:34;;;;;;;;;;;;;;;14.45;71.24;99177.78;5093506;28;20304;-40
2023/04/19 07:23:59;;;;;;;;;;;;;;;14.15;72.16;99170.03;5093397;28;19969;-41
2023/04/19 07:26:25;;;;;;;;;;;;;;;14.34;71.63;99175.97;5092916;28;20006;-41
2023/04/19 07:28:50;;;;;;;;;;;;;;;14.90;68.81;99183.31;5093397;28;20034;-43
2023/04/19 07:31:18;;;;;;;;;;;;;;;15.05;69.29;99180.84;5092816;28;19916;-42
2023/04/19 07:33:44;;;;;;;;;;;;;;;14.72;68.70;99181.72;5092752;28;19977;-41
2023/04/19 07:36:09;;;;;;;;;;;;;;;15.14;68.08;99181.25;5092221;28;20379;-42
2023/04/19 07:38:34;;;;;;;;;;;;;;;15.47;68.02;99180.34;5092699;28;19913;-43
2023/04/19 07:41:00;;;;;;;;;;;;;;;15.92;67.43;99183.84;5092732;28;20334;-42
2023/04/19 07:43:25;;;;;;;;;;;;;;;15.81;66.10;99185.59;5092608;28;20344;-44
2023/04/19 07:45:51;;;;;;;;;;;;;;;15.88;66.23;99186.22;5092800;28;19920;-43
2023/04/19 07:48:16;;;;;;;;;;;;;;;15.71;66.49;99190.84;5092686;28;19916;-42
2023/04/19 07:50:42;;;;;;;;;;;;;;;15.53;66.08;99198.09;5092721;28;20332;-43
2023/04/19 07:53:07;;;;;;;;;;;;;;;15.70;65.44;99191.88;5093024;28;20015;-42
2023/04/19 07:55:32;;;;;;;;;;;;;;;15.87;64.71;99189.97;5092454;28;19912;-43
2023/04/19 07:57:59;;;;;;;;;;;;;;;16.11;65.38;99192.38;5092439;28;20292;-42
2023/04/19 08:00:24;;;;;;;;;;;;;;;16.21;65.66;99192.47;5092588;28;19916;-44
2023/04/19 08:02:50;;;;;;;;;;;;;;;16.65;63.66;99195.00;5092405;28;19916;-42
2023/04/19 08:05:16;;;;;;;;;;;;;;;17.46;61.40;99199.31;5092302;28;19916;-43
2023/04/19 08:07:41;;;;;;;;;;;;;;;17.10;60.99;99190.25;5092353;28;19923;-42
2023/04/19 08:10:07;;;;;;;;;;;;;;;16.89;62.73;99192.00;5092061;28;19916;-40
2023/04/19 08:12:32;;;;;;;;;;;;;;;17.37;61.65;99188.22;5092388;28;19924;-41
2023/04/19 08:14:58;;;;;;;;;;;;;;;18.11;58.17;99188.25;5092351;28;19919;-43
2023/04/19 08:17:23;;;;;;;;;;;;;;;17.63;58.55;99199.13;5092208;28;19969;-42
2023/04/19 08:19:49;;;;;;;;;;;;;;;17.32;60.22;99192.75;5092106;28;20414;-41
2023/04/19 08:22:18;;;;;;;;;;;;;;;18.53;56.74;99184.50;5091658;28;19912;-42
2023/04/19 08:24:44;;;;;;;;;;;;;;;18.13;59.46;99184.19;5091866;28;19912;-41
2023/04/19 08:27:09;;;;;;;;;;;;;;;18.06;60.11;99193.59;5091839;28;19931;-41
2023/04/19 08:29:35;;;;;;;;;;;;;;;19.34;55.69;99189.00;5092620;28;19920;-42
2023/04/19 08:32:00;;;;;;;;;;;;;;;19.09;55.15;99189.84;5092330;28;19984;-41
2023/04/19 08:34:26;;;;;;;;;;;;;;;18.54;56.47;99188.81;5091866;28;19977;-41
2023/04/19 08:36:51;;;;;;;;;;;;;;;19.77;55.04;99185.88;5091664;28;19916;-40
2023/04/19 08:39:16;;;;;;;;;;;;;;;20.25;51.43;99180.72;5091542;28;19913;-41
2023/04/19 08:41:42;;;;;;;;;;;;;;;19.64;52.66;99181.88;5091677;28;19977;-40
2023/04/19 08:44:09;;;;;;;;;;;;;;;19.46;52.00;99183.31;5091648;28;19916;-41
2023/04/19 08:46:34;;;;;;;;;;;;;;;19.90;50.68;99176.38;5091420;28;19923;-42
2023/04/19 08:49:00;;;;;;;;;;;;;;;19.10;52.21;99175.31;5091654;28;19912;-41
2023/04/19 08:51:25;;;;;;;;;;;;;;;18.65;54.25;99168.88;5091759;28;20277;-42
2023/04/19 08:53:51;;;;;;;;;;;;;;;19.65;51.61;99169.19;5091699;28;19920;-40
2023/04/19 08:56:16;;;;;;;;;;;;;;;18.60;54.04;99168.91;5091771;28;19912;-41
2023/04/19 08:58:42;;;;;;;;;;;;;;;18.81;54.49;99169.72;5091953;28;19912;-41
2023/04/19 09:01:07;;;;;;;;;;;;;;;19.17;53.17;99174.22;5091464;28;20354;-41
2023/04/19 09:03:33;;;;;;;;;;;;;;;18.29;54.86;99174.25;5091626;28;20072;-41
2023/04/19 09:06:00;;;;;;;;;;;;;;;18.29;57.05;99178.84;5091483;28;19916;-42
2023/04/19 09:08:26;;;;;;;;;;;;;;;19.00;52.48;99167.25;5091037;28;20292;-41
2023/04/19 09:10:59;;;;;;;;;;;;;;;19.65;51.82;99166.50;5090746;28;19911;-41
2023/04/19 09:13:24;;;;;;;;;;;;;;;19.47;51.82;99168.72;5091190;28;20007;-40
2023/04/19 09:15:50;;;;;;;;;;;;;;;20.22;49.53;99170.50;5091231;28;19951;-41
2023/04/19 09:18:15;;;;;;;;;;;;;;;20.01;48.73;99174.41;5091165;28;19934;-41
2023/04/19 09:20:42;;;;;;;;;;;;;;;19.19;51.14;99163.94;5091300;28;20384;-41
2023/04/19 09:23:11;;;;;;;;;;;;;;;20.35;49.27;99168.25;5091263;28;19916;-42
2023/04/19 09:25:36;;;;;;;;;;;;;;;20.70;47.93;99170.69;5091362;28;19930;-41
2023/04/19 09:28:12;;;;;;;;;;;;;;;19.10;51.06;99164.53;5091513;28;19916;-41
2023/04/19 09:30:37;;;;;;;;;;;;;;;19.56;49.62;99174.34;5091017;28;19920;-41
2023/04/19 09:33:03;;;;;;;;;;;;;;;20.29;48.40;99165.56;5091665;28;20302;-41
2023/04/19 09:35:41;;;;;;;;;;;;;;;20.08;49.13;99173.00;5090550;28;19912;-40
2023/04/19 09:38:07;;;;;;;;;;;;;;;20.35;49.30;99163.63;5091207;28;19972;-40
2023/04/19 09:40:32;;;;;;;;;;;;;;;19.52;50.62;99162.50;5090860;28;19912;-41
2023/04/19 09:42:58;;;;;;;;;;;;;;;18.33;53.84;99159.19;5091141;28;20383;-41
2023/04/19 09:45:23;;;;;;;;;;;;;;;19.54;52.00;99163.81;5091248;28;20399;-41
2023/04/19 09:48:02;;;;;;;;;;;;;;;20.46;48.75;99156.28;5090784;28;20280;-41
2023/04/19 09:50:27;;;;;;;;;;;;;;;19.90;49.26;99155.59;5090562;28;19960;-40
2023/04/19 09:52:53;;;;;;;;;;;;;;;20.20;49.09;99142.97;5090714;28;20003;-41
2023/04/19 09:55:18;;;;;;;;;;;;;;;20.76;48.55;99155.22;5090738;28;19916;-40
2023/04/19 09:57:43;;;;;;;;;;;;;;;20.18;49.06;99138.91;5090768;28;19919;-41
2023/04/19 10:00:12;;;;;;;;;;;;;;;20.19;50.18;99151.34;5090920;28;20457;-40
2023/04/19 10:02:39;;;;;;;;;;;;;;;20.88;47.20;99146.72;5090835;28;20012;-41
2023/04/19 10:05:05;;;;;;;;;;;;;;;21.25;45.99;99143.34;5090555;28;19908;-40
2023/04/19 10:07:31;;;;;;;;;;;;;;;21.45;46.42;99142.31;5090355;28;20319;-41
2023/04/19 10:09:57;;;;;;;;;;;;;;;22.20;42.73;99131.78;5090453;28;20300;-41
2023/04/19 10:12:23;;;;;;;;;;;;;;;21.94;44.17;99136.81;5090514;28;19913;-40
2023/04/19 10:14:49;;;;;;;;;;;;;;;21.79;43.75;99137.81;5090299;28;19969;-40
2023/04/19 10:17:15;;;;;;;;;;;;;;;21.82;45.02;99131.84;5090406;28;20054;-41
2023/04/19 10:19:41;;;;;;;;;;;;;;;21.17;43.66;99133.19;5090462;28;19919;-41
2023/04/19 10:22:07;;;;;;;;;;;;;;;21.11;43.33;99122.69;5090145;28;19912;-42
2023/04/19 10:24:33;;;;;;;;;;;;;;;21.36;43.68;99121.56;5090484;28;19916;-41
2023/04/19 10:27:04;;;;;;;;;;;;;;;21.01;43.52;99127.13;5089881;28;20073;-41
2023/04/19 10:29:48;;;;;;;;;;;;;;;20.82;44.72;99118.13;5090087;28;19912;-41
2023/04/19 10:32:13;;;;;;;;;;;;;;;21.84;43.65;99116.91;5089912;28;19919;-41
2023/04/19 10:34:39;;;;;;;;;;;;;;;21.65;43.26;99113.38;5090600;28;19912;-41
2023/04/19 10:37:04;;;;;;;;;;;;;;;21.57;44.56;99112.13;5088643;28;19912;-41
2023/04/19 10:39:40;;;;;;;;;;;;;;;22.05;42.52;99105.75;5090004;28;19912;-41
2023/04/19 10:42:05;;;;;;;;;;;;;;;21.63;42.40;99110.16;5090103;28;19911;-41
2023/04/19 10:44:30;;;;;;;;;;;;;;;21.55;41.63;99105.38;5089838;28;19912;-41
2023/04/19 10:46:57;;;;;;;;;;;;;;;22.22;39.44;99102.50;5093354;28;19916;-40
2023/04/19 10:49:22;;;;;;;;;;;;;;;20.75;42.05;99107.63;5093905;28;19912;-41
2023/04/19 10:51:52;;;;;;;;;;;;;;;20.92;41.52;99093.69;5094051;28;20348;-41
2023/04/19 10:54:31;;;;;;;;;;;;;;;22.22;40.29;99097.91;5093996;28;20299;-41
2023/04/19 10:57:01;;;;;;;;;;;;;;;21.56;42.32;99096.19;5094022;28;19912;-42
2023/04/19 10:59:28;;;;;;;;;;;;;;;21.00;42.76;99103.88;5093893;28;19912;-41
2023/04/19 11:01:55;;;;;;;;;;;;;;;21.96;42.11;99100.19;5093478;28;20373;-41
2023/04/19 11:04:20;;;;;;;;;;;;;;;21.57;43.39;99097.78;5093903;28;20002;-40
2023/04/19 11:06:51;;;;;;;;;;;;;;;21.86;43.66;99095.75;5093171;28;20073;-41
2023/04/19 11:09:29;;;;;;;;;;;;;;;22.36;40.10;99089.03;5093405;28;20020;-41
2023/04/19 11:12:00;;;;;;;;;;;;;;;21.62;40.72;99095.00;5093693;28;19947;-41
2023/04/19 11:14:25;;;;;;;;;;;;;;;21.26;41.58;99095.44;5093162;28;19958;-40
2023/04/19 11:16:50;;;;;;;;;;;;;;;21.74;39.95;99083.75;5093329;28;20406;-41
2023/04/19 11:19:16;;;;;;;;;;;;;;;20.64;43.24;99089.94;5092987;28;19919;-41
2023/04/19 11:21:41;;;;;;;;;;;;;;;20.63;44.68;99086.41;5093359;28;19916;-40
2023/04/19 11:24:07;;;;;;;;;;;;;;;20.88;42.48;99090.72;5093297;28;19927;-41
2023/04/19 11:26:32;;;;;;;;;;;;;;;20.91;42.34;99093.97;5092780;28;19982;-42
2023/04/19 11:28:57;;;;;;;;;;;;;;;20.48;43.34;99086.53;5092990;28;19949;-41
2023/04/19 11:31:24;;;;;;;;;;;;;;;21.09;41.68;99091.34;5092950;28;20038;-41
2023/04/19 11:33:50;;;;;;;;;;;;;;;20.42;43.04;99087.66;5093118;28;20398;-41
2023/04/19 11:36:15;;;;;;;;;;;;;;;20.32;43.02;99085.88;5092805;28;20004;-41
2023/04/19 11:38:45;;;;;;;;;;;;;;;20.32;44.06;99075.06;5092938;28;19955;-40
2023/04/19 11:41:10;;;;;;;;;;;;;;;19.55;44.67;99086.38;5092747;28;20437;-41
2023/04/19 11:43:36;;;;;;;;;;;;;;;19.41;45.24;99075.41;5093012;28;19912;-42
2023/04/19 11:46:07;;;;;;;;;;;;;;;19.95;44.63;99084.53;5093066;28;19916;-42
2023/04/19 11:48:33;;;;;;;;;;;;;;;19.64;45.04;99078.50;5093161;28;20011;-41
2023/04/19 11:50:59;;;;;;;;;;;;;;;19.30;46.22;99082.72;5093243;28;19952;-40
2023/04/19 11:53:26;;;;;;;;;;;;;;;19.49;45.72;99092.88;5092871;28;19957;-41
2023/04/19 11:55:55;;;;;;;;;;;;;;;19.33;46.14;99087.56;5092708;28;19912;-41
2023/04/19 11:58:36;;;;;;;;;;;;;;;18.53;49.62;99092.91;5092415;28;19916;-41
2023/04/19 12:01:05;;;;;;;;;;;;;;;18.68;50.86;99094.78;5093057;28;19912;-41
2023/04/19 12:03:30;;;;;;;;;;;;;;;18.61;52.53;99092.34;5092768;28;19916;-41
2023/04/19 12:05:56;;;;;;;;;;;;;;;18.69;53.89;99094.47;5092517;28;19915;-40
2023/04/19 12:08:31;;;;;;;;;;;;;;;18.91;53.00;99090.72;5092317;28;19920;-42
2023/04/19 12:10:57;;;;;;;;;;;;;;;19.11;51.20;99096.03;5092413;28;19912;-41
2023/04/19 12:13:24;;;;;;;;;;;;;;;18.51;53.03;99087.78;5092409;28;19908;-41
2023/04/19 12:15:49;;;;;;;;;;;;;;;19.24;51.12;99081.13;5092155;28;19916;-41
2023/04/19 12:18:14;;;;;;;;;;;;;;;19.15;51.05;99080.09;5092427;28;19912;-42
2023/04/19 12:20:44;;;;;;;;;;;;;;;18.81;53.17;99088.03;5092472;28;20006;-41
2023/04/19 12:23:13;;;;;;;;;;;;;;;19.08;53.62;99103.88;5092087;28;20299;-41
2023/04/19 12:25:38;;;;;;;;;;;;;;;18.41;56.16;99108.53;5091613;28;19930;-42
2023/04/19 12:28:04;;;;;;;;;;;;;;;16.68;63.49;99105.84;5092299;28;19916;-42
2023/04/19 12:30:29;;;;;;;;;;;;;;;16.76;64.30;99104.53;5092588;28;19912;-41
2023/04/19 12:32:54;;;;;;;;;;;;;;;16.51;66.25;99105.19;5092187;28;20449;-42
2023/04/19 12:35:26;;;;;;;;;;;;;;;15.82;69.08;99107.56;5092232;28;19912;-41
2023/04/19 12:37:57;;;;;;;;;;;;;;;15.56;71.05;99111.81;5091839;28;20355;-41
2023/04/19 12:40:22;;;;;;;;;;;;;;;15.95;68.25;99094.78;5091825;28;20405;-41